sensor_id;sensor_type;location;lat;lon;timestamp;pressure;altitude;pressure_sealevel;temperature;humidity
41573;BME280;27286;47.870;19.006;2023-01-30T00:01:18;99776.25;;;-5.48;98.04
41573;BME280;27286;47.870;19.006;2023-01-30T00:03:44;99776.16;;;-5.51;97.64
41573;BME280;27286;47.870;19.006;2023-01-30T00:06:10;99775.06;;;-5.59;97.88
41573;BME280;27286;47.870;19.006;2023-01-30T00:08:35;99771.59;;;-5.62;98.45
41573;BME280;27286;47.870;19.006;2023-01-30T00:11:05;99764.59;;;-5.71;98.42
41573;BME280;27286;47.870;19.006;2023-01-30T00:13:32;99767.22;;;-5.68;98.71
41573;BME280;27286;47.870;19.006;2023-01-30T00:15:57;99769.03;;;-5.64;98.77
41573;BME280;27286;47.870;19.006;2023-01-30T00:18:23;99765.59;;;-5.66;99.56
41573;BME280;27286;47.870;19.006;2023-01-30T00:20:54;99763.13;;;-5.63;99.44
41573;BME280;27286;47.870;19.006;2023-01-30T00:23:20;99765.66;;;-5.63;99.03
41573;BME280;27286;47.870;19.006;2023-01-30T00:25:45;99774.19;;;-5.61;99.33
41573;BME280;27286;47.870;19.006;2023-01-30T00:28:10;99754.53;;;-5.68;98.59
41573;BME280;27286;47.870;19.006;2023-01-30T00:30:36;99759.19;;;-5.53;98.51
41573;BME280;27286;47.870;19.006;2023-01-30T00:33:01;99766.19;;;-5.45;97.68
41573;BME280;27286;47.870;19.006;2023-01-30T00:35:26;99760.13;;;-5.50;97.29
41573;BME280;27286;47.870;19.006;2023-01-30T00:37:56;99759.13;;;-5.55;97.65
41573;BME280;27286;47.870;19.006;2023-01-30T00:40:23;99750.44;;;-5.63;97.56
41573;BME280;27286;47.870;19.006;2023-01-30T00:42:49;99748.47;;;-5.73;97.77
41573;BME280;27286;47.870;19.006;2023-01-30T00:45:34;99744.09;;;-5.79;98.60
41573;BME280;27286;47.870;19.006;2023-01-30T00:48:19;99736.16;;;-5.89;98.93
41573;BME280;27286;47.870;19.006;2023-01-30T00:50:44;99742.94;;;-5.88;98.78
41573;BME280;27286;47.870;19.006;2023-01-30T00:53:11;99741.16;;;-5.92;99.34
41573;BME280;27286;47.870;19.006;2023-01-30T00:55:37;99736.25;;;-5.86;99.55
41573;BME280;27286;47.870;19.006;2023-01-30T00:58:03;99736.47;;;-5.79;99.75
41573;BME280;27286;47.870;19.006;2023-01-30T01:00:29;99740.44;;;-5.58;98.52
41573;BME280;27286;47.870;19.006;2023-01-30T01:02:54;99738.34;;;-5.41;97.08
41573;BME280;27286;47.870;19.006;2023-01-30T01:05:19;99734.28;;;-5.36;95.60
41573;BME280;27286;47.870;19.006;2023-01-30T01:07:45;99731.09;;;-5.29;94.87
41573;BME280;27286;47.870;19.006;2023-01-30T01:10:10;99731.59;;;-5.41;94.89
41573;BME280;27286;47.870;19.006;2023-01-30T01:12:44;99733.88;;;-5.52;95.48
41573;BME280;27286;47.870;19.006;2023-01-30T01:15:11;99721.41;;;-5.42;94.87
41573;BME280;27286;47.870;19.006;2023-01-30T01:17:38;99725.59;;;-5.45;94.69
41573;BME280;27286;47.870;19.006;2023-01-30T01:20:04;99725.56;;;-5.46;94.43
41573;BME280;27286;47.870;19.006;2023-01-30T01:22:31;99711.94;;;-5.50;94.38
41573;BME280;27286;47.870;19.006;2023-01-30T01:24:56;99718.72;;;-5.49;94.17
41573;BME280;27286;47.870;19.006;2023-01-30T01:27:22;99698.03;;;-5.62;94.56
41573;BME280;27286;47.870;19.006;2023-01-30T01:29:47;99706.78;;;-5.53;94.27
41573;BME280;27286;47.870;19.006;2023-01-30T01:32:13;99709.06;;;-5.62;94.90
41573;BME280;27286;47.870;19.006;2023-01-30T01:34:38;99706.44;;;-5.65;94.60
41573;BME280;27286;47.870;19.006;2023-01-30T01:37:03;99707.38;;;-5.61;94.66
41573;BME280;27286;47.870;19.006;2023-01-30T01:39:29;99696.44;;;-5.59;94.40
41573;BME280;27286;47.870;19.006;2023-01-30T01:42:15;99690.47;;;-5.61;94.59
41573;BME280;27286;47.870;19.006;2023-01-30T01:47:23;99677.16;;;-5.54;94.72
41573;BME280;27286;47.870;19.006;2023-01-30T01:49:48;99667.56;;;-5.64;94.38
41573;BME280;27286;47.870;19.006;2023-01-30T01:52:15;99670.81;;;-5.69;95.13
41573;BME280;27286;47.870;19.006;2023-01-30T01:54:49;99655.38;;;-5.77;95.66
41573;BME280;27286;47.870;19.006;2023-01-30T01:57:23;99651.94;;;-5.79;95.67
41573;BME280;27286;47.870;19.006;2023-01-30T01:59:52;99649.97;;;-5.89;95.84
41573;BME280;27286;47.870;19.006;2023-01-30T02:02:19;99656.75;;;-5.88;96.74
41573;BME280;27286;47.870;19.006;2023-01-30T02:04:47;99651.34;;;-6.02;96.27
41573;BME280;27286;47.870;19.006;2023-01-30T02:07:28;99636.69;;;-6.12;97.61
41573;BME280;27286;47.870;19.006;2023-01-30T02:09:57;99645.38;;;-6.04;97.90
41573;BME280;27286;47.870;19.006;2023-01-30T02:12:23;99635.81;;;-6.13;97.66
41573;BME280;27286;47.870;19.006;2023-01-30T02:14:49;99638.44;;;-6.10;98.00
41573;BME280;27286;47.870;19.006;2023-01-30T02:17:15;99637.69;;;-6.06;98.13
41573;BME280;27286;47.870;19.006;2023-01-30T02:39:04;99595.63;;;-6.00;98.59
41573;BME280;27286;47.870;19.006;2023-01-30T02:44:38;99597.88;;;-5.78;97.10
41573;BME280;27286;47.870;19.006;2023-01-30T02:47:12;99595.97;;;-5.87;96.95
41573;BME280;27286;47.870;19.006;2023-01-30T02:49:42;99591.00;;;-5.82;96.61
41573;BME280;27286;47.870;19.006;2023-01-30T02:52:11;99588.06;;;-5.66;96.29
41573;BME280;27286;47.870;19.006;2023-01-30T02:54:38;99584.00;;;-5.59;95.15
41573;BME280;27286;47.870;19.006;2023-01-30T02:57:17;99565.31;;;-5.63;94.24
41573;BME280;27286;47.870;19.006;2023-01-30T02:59:46;99572.84;;;-5.66;95.21
41573;BME280;27286;47.870;19.006;2023-01-30T03:03:00;99581.09;;;-5.73;95.38
41573;BME280;27286;47.870;19.006;2023-01-30T03:11:06;99573.25;;;-5.82;96.46
41573;BME280;27286;47.870;19.006;2023-01-30T03:16:29;99581.69;;;-5.50;94.66
41573;BME280;27286;47.870;19.006;2023-01-30T03:18:58;99578.16;;;-5.55;94.82
41573;BME280;27286;47.870;19.006;2023-01-30T03:21:24;99572.09;;;-5.62;94.72
41573;BME280;27286;47.870;19.006;2023-01-30T03:23:50;99568.22;;;-5.48;94.06
41573;BME280;27286;47.870;19.006;2023-01-30T03:26:25;99573.34;;;-5.46;93.18
41573;BME280;27286;47.870;19.006;2023-01-30T03:28:52;99570.69;;;-5.51;93.42
41573;BME280;27286;47.870;19.006;2023-01-30T03:31:17;99571.41;;;-5.55;93.74
41573;BME280;27286;47.870;19.006;2023-01-30T03:33:43;99574.06;;;-5.52;92.98
41573;BME280;27286;47.870;19.006;2023-01-30T03:36:09;99573.88;;;-5.58;93.06
41573;BME280;27286;47.870;19.006;2023-01-30T03:38:35;99575.78;;;-5.51;92.97
41573;BME280;27286;47.870;19.006;2023-01-30T03:41:01;99564.69;;;-5.54;93.29
41573;BME280;27286;47.870;19.006;2023-01-30T03:43:27;99556.13;;;-5.58;93.75
41573;BME280;27286;47.870;19.006;2023-01-30T03:45:52;99560.22;;;-5.63;94.19
41573;BME280;27286;47.870;19.006;2023-01-30T03:48:18;99555.16;;;-5.63;94.09
41573;BME280;27286;47.870;19.006;2023-01-30T03:50:43;99550.97;;;-5.61;93.96
41573;BME280;27286;47.870;19.006;2023-01-30T03:53:08;99546.63;;;-5.66;94.17
41573;BME280;27286;47.870;19.006;2023-01-30T03:55:34;99547.56;;;-5.63;93.90
41573;BME280;27286;47.870;19.006;2023-01-30T03:57:59;99549.13;;;-5.68;93.57
41573;BME280;27286;47.870;19.006;2023-01-30T04:00:25;99524.13;;;-5.87;94.37
41573;BME280;27286;47.870;19.006;2023-01-30T04:02:50;99533.84;;;-5.71;94.27
41573;BME280;27286;47.870;19.006;2023-01-30T04:05:16;99537.16;;;-5.72;93.73
41573;BME280;27286;47.870;19.006;2023-01-30T04:07:42;99533.22;;;-5.61;93.56
41573;BME280;27286;47.870;19.006;2023-01-30T04:10:07;99531.31;;;-5.71;93.61
41573;BME280;27286;47.870;19.006;2023-01-30T04:12:33;99527.34;;;-5.60;94.15
41573;BME280;27286;47.870;19.006;2023-01-30T04:14:58;99520.50;;;-5.62;93.30
41573;BME280;27286;47.870;19.006;2023-01-30T04:17:24;99515.72;;;-5.52;93.10
41573;BME280;27286;47.870;19.006;2023-01-30T04:19:49;99513.19;;;-5.52;93.40
41573;BME280;27286;47.870;19.006;2023-01-30T04:22:15;99513.00;;;-5.58;92.99
41573;BME280;27286;47.870;19.006;2023-01-30T04:24:40;99503.72;;;-5.57;93.39
41573;BME280;27286;47.870;19.006;2023-01-30T04:27:05;99498.78;;;-5.53;93.21
41573;BME280;27286;47.870;19.006;2023-01-30T04:29:31;99487.69;;;-5.56;93.27
41573;BME280;27286;47.870;19.006;2023-01-30T04:31:56;99493.50;;;-5.60;93.71
41573;BME280;27286;47.870;19.006;2023-01-30T04:34:22;99488.38;;;-5.63;93.69
41573;BME280;27286;47.870;19.006;2023-01-30T04:36:47;99488.53;;;-5.56;93.81
41573;BME280;27286;47.870;19.006;2023-01-30T04:39:12;99490.34;;;-5.52;93.35
41573;BME280;27286;47.870;19.006;2023-01-30T04:41:38;99476.13;;;-5.45;92.87
41573;BME280;27286;47.870;19.006;2023-01-30T04:44:04;99482.06;;;-5.43;92.04
41573;BME280;27286;47.870;19.006;2023-01-30T04:46:29;99478.63;;;-5.47;92.61
41573;BME280;27286;47.870;19.006;2023-01-30T04:48:55;99481.94;;;-5.49;92.70
41573;BME280;27286;47.870;19.006;2023-01-30T04:51:20;99480.84;;;-5.59;92.64
41573;BME280;27286;47.870;19.006;2023-01-30T04:53:46;99481.63;;;-5.63;93.48
41573;BME280;27286;47.870;19.006;2023-01-30T04:56:11;99490.75;;;-5.69;93.54
41573;BME280;27286;47.870;19.006;2023-01-30T04:58:37;99479.53;;;-5.79;94.41
41573;BME280;27286;47.870;19.006;2023-01-30T05:01:24;99489.31;;;-5.94;94.85
41573;BME280;27286;47.870;19.006;2023-01-30T05:03:53;99486.38;;;-6.10;95.36
41573;BME280;27286;47.870;19.006;2023-01-30T05:06:19;99481.81;;;-6.23;95.98
41573;BME280;27286;47.870;19.006;2023-01-30T05:08:52;99487.66;;;-6.25;97.37
41573;BME280;27286;47.870;19.006;2023-01-30T05:11:19;99485.88;;;-6.29;97.67
41573;BME280;27286;47.870;19.006;2023-01-30T05:13:44;99494.09;;;-6.38;98.01
41573;BME280;27286;47.870;19.006;2023-01-30T05:16:11;99488.72;;;-6.49;98.53
41573;BME280;27286;47.870;19.006;2023-01-30T05:18:37;99487.59;;;-6.58;98.70
41573;BME280;27286;47.870;19.006;2023-01-30T05:21:14;99475.41;;;-6.42;99.89
41573;BME280;27286;47.870;19.006;2023-01-30T05:23:40;99472.00;;;-6.42;99.85
41573;BME280;27286;47.870;19.006;2023-01-30T05:26:05;99480.25;;;-6.51;99.03
41573;BME280;27286;47.870;19.006;2023-01-30T05:28:31;99473.69;;;-6.43;99.37
41573;BME280;27286;47.870;19.006;2023-01-30T05:31:05;99475.44;;;-6.40;99.47
41573;BME280;27286;47.870;19.006;2023-01-30T05:33:31;99467.75;;;-6.43;99.34
41573;BME280;27286;47.870;19.006;2023-01-30T05:35:56;99468.53;;;-6.46;99.58
41573;BME280;27286;47.870;19.006;2023-01-30T05:38:22;99475.94;;;-6.53;99.59
41573;BME280;27286;47.870;19.006;2023-01-30T05:41:03;99482.59;;;-6.57;99.82
41573;BME280;27286;47.870;19.006;2023-01-30T05:43:29;99478.13;;;-6.65;100.00
41573;BME280;27286;47.870;19.006;2023-01-30T05:45:56;99484.06;;;-6.65;100.00
41573;BME280;27286;47.870;19.006;2023-01-30T05:48:22;99476.38;;;-6.68;100.00
41573;BME280;27286;47.870;19.006;2023-01-30T05:50:56;99479.69;;;-6.71;100.00
41573;BME280;27286;47.870;19.006;2023-01-30T05:53:23;99479.03;;;-6.63;100.00
41573;BME280;27286;47.870;19.006;2023-01-30T05:56:00;99473.59;;;-6.46;100.00
41573;BME280;27286;47.870;19.006;2023-01-30T05:58:26;99464.75;;;-6.30;100.00
41573;BME280;27286;47.870;19.006;2023-01-30T06:00:52;99467.81;;;-6.09;100.00
41573;BME280;27286;47.870;19.006;2023-01-30T06:03:18;99479.00;;;-6.02;100.00
41573;BME280;27286;47.870;19.006;2023-01-30T06:05:43;99457.59;;;-6.13;100.00
41573;BME280;27286;47.870;19.006;2023-01-30T06:08:09;99477.28;;;-6.03;100.00
41573;BME280;27286;47.870;19.006;2023-01-30T06:10:35;99473.25;;;-5.95;100.00
41573;BME280;27286;47.870;19.006;2023-01-30T06:13:00;99472.59;;;-5.86;100.00
41573;BME280;27286;47.870;19.006;2023-01-30T06:15:26;99468.81;;;-5.69;100.00
41573;BME280;27286;47.870;19.006;2023-01-30T06:17:51;99462.41;;;-5.53;99.78
41573;BME280;27286;47.870;19.006;2023-01-30T06:20:17;99463.53;;;-5.40;98.68
41573;BME280;27286;47.870;19.006;2023-01-30T06:22:42;99454.50;;;-5.28;98.18
41573;BME280;27286;47.870;19.006;2023-01-30T06:25:08;99459.25;;;-5.04;95.97
41573;BME280;27286;47.870;19.006;2023-01-30T06:27:34;99457.69;;;-4.99;95.62
41573;BME280;27286;47.870;19.006;2023-01-30T06:29:59;99448.47;;;-4.94;94.21
41573;BME280;27286;47.870;19.006;2023-01-30T06:32:25;99452.97;;;-4.82;93.99
41573;BME280;27286;47.870;19.006;2023-01-30T06:34:50;99443.81;;;-4.72;93.94
41573;BME280;27286;47.870;19.006;2023-01-30T06:37:16;99446.59;;;-4.62;92.79
41573;BME280;27286;47.870;19.006;2023-01-30T06:39:41;99442.47;;;-4.55;92.90
41573;BME280;27286;47.870;19.006;2023-01-30T06:42:06;99442.75;;;-4.41;92.38
41573;BME280;27286;47.870;19.006;2023-01-30T06:44:32;99427.78;;;-4.26;92.08
41573;BME280;27286;47.870;19.006;2023-01-30T06:46:57;99438.16;;;-4.14;91.53
41573;BME280;27286;47.870;19.006;2023-01-30T06:49:23;99435.06;;;-3.98;91.17
41573;BME280;27286;47.870;19.006;2023-01-30T06:51:48;99426.69;;;-3.89;91.14
41573;BME280;27286;47.870;19.006;2023-01-30T06:54:14;99437.31;;;-3.63;89.88
41573;BME280;27286;47.870;19.006;2023-01-30T06:56:39;99441.78;;;-3.48;88.87
41573;BME280;27286;47.870;19.006;2023-01-30T06:59:04;99440.78;;;-3.56;89.30
41573;BME280;27286;47.870;19.006;2023-01-30T07:01:30;99431.38;;;-3.64;90.07
41573;BME280;27286;47.870;19.006;2023-01-30T07:03:56;99436.44;;;-3.64;89.80
41573;BME280;27286;47.870;19.006;2023-01-30T07:06:21;99438.13;;;-3.66;90.55
41573;BME280;27286;47.870;19.006;2023-01-30T07:08:47;99442.34;;;-3.68;90.72
41573;BME280;27286;47.870;19.006;2023-01-30T07:11:12;99449.09;;;-3.68;91.57
41573;BME280;27286;47.870;19.006;2023-01-30T07:13:37;99423.63;;;-3.70;91.03
41573;BME280;27286;47.870;19.006;2023-01-30T07:16:03;99446.75;;;-3.54;91.03
41573;BME280;27286;47.870;19.006;2023-01-30T07:18:28;99451.97;;;-3.48;91.43
41573;BME280;27286;47.870;19.006;2023-01-30T07:20:54;99441.03;;;-3.40;91.02
41573;BME280;27286;47.870;19.006;2023-01-30T07:23:19;99443.75;;;-3.29;90.80
41573;BME280;27286;47.870;19.006;2023-01-30T07:25:45;99431.94;;;-3.24;90.41
41573;BME280;27286;47.870;19.006;2023-01-30T07:28:10;99431.28;;;-3.11;89.90
41573;BME280;27286;47.870;19.006;2023-01-30T07:30:36;99427.09;;;-3.06;89.71
41573;BME280;27286;47.870;19.006;2023-01-30T07:33:03;99424.66;;;-2.96;89.05
41573;BME280;27286;47.870;19.006;2023-01-30T07:35:31;99423.88;;;-2.91;89.36
41573;BME280;27286;47.870;19.006;2023-01-30T07:37:57;99429.88;;;-2.87;89.21
41573;BME280;27286;47.870;19.006;2023-01-30T07:40:22;99419.81;;;-2.75;90.37
41573;BME280;27286;47.870;19.006;2023-01-30T07:43:14;99427.66;;;-2.58;89.14
41573;BME280;27286;47.870;19.006;2023-01-30T07:45:42;99420.13;;;-2.49;88.63
41573;BME280;27286;47.870;19.006;2023-01-30T07:48:10;99419.31;;;-2.45;87.81
41573;BME280;27286;47.870;19.006;2023-01-30T07:50:37;99409.16;;;-2.42;87.37
41573;BME280;27286;47.870;19.006;2023-01-30T07:53:04;99400.69;;;-2.39;87.93
41573;BME280;27286;47.870;19.006;2023-01-30T07:55:30;99372.66;;;-2.36;87.54
41573;BME280;27286;47.870;19.006;2023-01-30T07:57:55;99361.59;;;-2.37;87.58
41573;BME280;27286;47.870;19.006;2023-01-30T08:00:21;99359.94;;;-2.35;87.35
41573;BME280;27286;47.870;19.006;2023-01-30T08:02:46;99357.44;;;-2.29;87.29
41573;BME280;27286;47.870;19.006;2023-01-30T08:05:11;99337.94;;;-2.24;87.16
41573;BME280;27286;47.870;19.006;2023-01-30T08:07:37;99342.19;;;-2.21;86.21
41573;BME280;27286;47.870;19.006;2023-01-30T08:10:03;99349.91;;;-2.18;86.12
41573;BME280;27286;47.870;19.006;2023-01-30T08:12:28;99359.19;;;-2.23;86.23
41573;BME280;27286;47.870;19.006;2023-01-30T08:14:54;99350.72;;;-2.19;86.67
41573;BME280;27286;47.870;19.006;2023-01-30T08:17:19;99380.53;;;-2.15;86.26
41573;BME280;27286;47.870;19.006;2023-01-30T08:19:45;99376.34;;;-2.02;86.73
41573;BME280;27286;47.870;19.006;2023-01-30T08:22:10;99379.00;;;-1.90;86.41
41573;BME280;27286;47.870;19.006;2023-01-30T08:24:36;99370.56;;;-1.85;85.21
41573;BME280;27286;47.870;19.006;2023-01-30T08:27:01;99366.34;;;-1.78;84.26
41573;BME280;27286;47.870;19.006;2023-01-30T08:29:27;99364.63;;;-1.80;84.59
41573;BME280;27286;47.870;19.006;2023-01-30T08:31:59;99362.09;;;-1.80;84.15
41573;BME280;27286;47.870;19.006;2023-01-30T08:34:26;99365.59;;;-1.68;84.13
41573;BME280;27286;47.870;19.006;2023-01-30T08:36:51;99363.16;;;-1.48;84.06
41573;BME280;27286;47.870;19.006;2023-01-30T08:39:17;99359.69;;;-1.53;84.10
41573;BME280;27286;47.870;19.006;2023-01-30T08:41:42;99349.44;;;-1.67;83.63
41573;BME280;27286;47.870;19.006;2023-01-30T08:44:11;99350.22;;;-1.74;84.16
41573;BME280;27286;47.870;19.006;2023-01-30T08:46:39;99350.22;;;-1.72;83.72
41573;BME280;27286;47.870;19.006;2023-01-30T08:49:05;99338.31;;;-1.75;83.92
41573;BME280;27286;47.870;19.006;2023-01-30T08:51:31;99339.16;;;-1.74;84.90
41573;BME280;27286;47.870;19.006;2023-01-30T08:53:56;99333.22;;;-1.70;84.56
41573;BME280;27286;47.870;19.006;2023-01-30T08:56:22;99334.97;;;-1.68;83.75
41573;BME280;27286;47.870;19.006;2023-01-30T08:58:47;99336.63;;;-1.68;84.96
41573;BME280;27286;47.870;19.006;2023-01-30T09:01:14;99335.00;;;-1.60;85.40
41573;BME280;27286;47.870;19.006;2023-01-30T09:03:39;99341.81;;;-1.53;85.14
41573;BME280;27286;47.870;19.006;2023-01-30T09:06:05;99324.81;;;-1.53;84.50
41573;BME280;27286;47.870;19.006;2023-01-30T09:08:30;99322.28;;;-1.51;84.68
41573;BME280;27286;47.870;19.006;2023-01-30T09:11:00;99328.25;;;-1.47;84.96
41573;BME280;27286;47.870;19.006;2023-01-30T09:13:26;99318.06;;;-1.46;84.89
41573;BME280;27286;47.870;19.006;2023-01-30T09:15:52;99308.69;;;-1.44;84.11
41573;BME280;27286;47.870;19.006;2023-01-30T09:18:18;99301.03;;;-1.42;84.43
41573;BME280;27286;47.870;19.006;2023-01-30T09:20:43;99289.13;;;-1.45;84.58
41573;BME280;27286;47.870;19.006;2023-01-30T09:23:09;99286.56;;;-1.49;84.98
41573;BME280;27286;47.870;19.006;2023-01-30T09:25:34;99287.34;;;-1.55;85.16
41573;BME280;27286;47.870;19.006;2023-01-30T09:28:00;99283.94;;;-1.57;85.68
41573;BME280;27286;47.870;19.006;2023-01-30T09:30:25;99275.44;;;-1.55;86.16
41573;BME280;27286;47.870;19.006;2023-01-30T09:32:50;99276.34;;;-1.48;86.07
41573;BME280;27286;47.870;19.006;2023-01-30T09:35:16;99272.97;;;-1.38;85.41
41573;BME280;27286;47.870;19.006;2023-01-30T09:37:49;99261.97;;;-1.22;85.06
41573;BME280;27286;47.870;19.006;2023-01-30T09:40:27;99250.13;;;-0.95;84.19
41573;BME280;27286;47.870;19.006;2023-01-30T09:48:28;99241.63;;;-0.42;80.76
41573;BME280;27286;47.870;19.006;2023-01-30T09:56:19;99217.78;;;-0.61;82.18
41573;BME280;27286;47.870;19.006;2023-01-30T09:58:49;99216.06;;;-0.59;82.47
41573;BME280;27286;47.870;19.006;2023-01-30T10:01:22;99222.03;;;-0.62;83.11
41573;BME280;27286;47.870;19.006;2023-01-30T10:03:56;99222.88;;;-0.52;83.13
41573;BME280;27286;47.870;19.006;2023-01-30T10:06:23;99209.25;;;-0.39;83.39
41573;BME280;27286;47.870;19.006;2023-01-30T10:27:12;99183.53;;;0.18;81.68
41573;BME280;27286;47.870;19.006;2023-01-30T10:29:43;99162.22;;;0.11;81.95
41573;BME280;27286;47.870;19.006;2023-01-30T10:32:18;99158.78;;;0.23;81.67
41573;BME280;27286;47.870;19.006;2023-01-30T10:34:48;99151.91;;;0.29;81.14
41573;BME280;27286;47.870;19.006;2023-01-30T10:37:25;99144.03;;;0.68;79.32
41573;BME280;27286;47.870;19.006;2023-01-30T10:45:09;99127.81;;;0.69;79.21
41573;BME280;27286;47.870;19.006;2023-01-30T10:47:47;99123.56;;;0.63;79.90
41573;BME280;27286;47.870;19.006;2023-01-30T10:50:24;99126.19;;;0.49;79.98
41573;BME280;27286;47.870;19.006;2023-01-30T10:53:01;99121.97;;;0.42;80.32
41573;BME280;27286;47.870;19.006;2023-01-30T10:55:55;99105.78;;;0.40;79.44
41573;BME280;27286;47.870;19.006;2023-01-30T10:59:19;99091.22;;;0.45;79.56
41573;BME280;27286;47.870;19.006;2023-01-30T11:02:12;99084.41;;;0.43;79.04
41573;BME280;27286;47.870;19.006;2023-01-30T11:04:57;99084.31;;;0.56;79.44
41573;BME280;27286;47.870;19.006;2023-01-30T11:07:24;99075.78;;;0.57;78.87
41573;BME280;27286;47.870;19.006;2023-01-30T11:09:50;99079.22;;;0.56;79.43
41573;BME280;27286;47.870;19.006;2023-01-30T11:12:15;99070.75;;;0.42;79.88
41573;BME280;27286;47.870;19.006;2023-01-30T11:15:00;99066.44;;;0.47;79.48
41573;BME280;27286;47.870;19.006;2023-01-30T11:17:36;99059.63;;;0.48;78.88
41573;BME280;27286;47.870;19.006;2023-01-30T11:20:20;99052.75;;;0.54;79.24
41573;BME280;27286;47.870;19.006;2023-01-30T11:22:49;99048.47;;;0.55;78.80
41573;BME280;27286;47.870;19.006;2023-01-30T11:25:19;99042.53;;;0.50;78.45
41573;BME280;27286;47.870;19.006;2023-01-30T11:27:59;99036.59;;;0.43;77.96
41573;BME280;27286;47.870;19.006;2023-01-30T11:30:28;99037.47;;;0.42;77.93
41573;BME280;27286;47.870;19.006;2023-01-30T11:33:16;99038.34;;;0.40;77.27
41573;BME280;27286;47.870;19.006;2023-01-30T11:38:24;99045.09;;;0.47;77.31
41573;BME280;27286;47.870;19.006;2023-01-30T11:41:01;99042.50;;;0.54;75.83
41573;BME280;27286;47.870;19.006;2023-01-30T11:43:28;99039.94;;;0.56;76.68
41573;BME280;27286;47.870;19.006;2023-01-30T11:45:54;99035.69;;;0.53;75.83
41573;BME280;27286;47.870;19.006;2023-01-30T11:48:23;99015.19;;;0.55;75.85
41573;BME280;27286;47.870;19.006;2023-01-30T11:50:57;99003.19;;;0.58;75.25
41573;BME280;27286;47.870;19.006;2023-01-30T11:56:30;98989.41;;;0.73;74.18
41573;BME280;27286;47.870;19.006;2023-01-30T11:59:03;98987.59;;;0.86;73.88
41573;BME280;27286;47.870;19.006;2023-01-30T12:01:34;98989.22;;;0.93;74.83
41573;BME280;27286;47.870;19.006;2023-01-30T12:04:07;98975.56;;;0.93;74.70
41573;BME280;27286;47.870;19.006;2023-01-30T12:06:37;98978.25;;;0.77;75.04
41573;BME280;27286;47.870;19.006;2023-01-30T12:09:03;98968.13;;;0.68;74.78
41573;BME280;27286;47.870;19.006;2023-01-30T12:14:37;98965.44;;;0.77;75.14
41573;BME280;27286;47.870;19.006;2023-01-30T12:17:15;98955.09;;;0.89;74.71
41573;BME280;27286;47.870;19.006;2023-01-30T12:23:01;98946.47;;;0.97;74.68
41573;BME280;27286;47.870;19.006;2023-01-30T12:25:57;98936.28;;;0.90;75.10
41573;BME280;27286;47.870;19.006;2023-01-30T12:31:16;98941.41;;;0.90;74.97
41573;BME280;27286;47.870;19.006;2023-01-30T12:33:43;98943.13;;;0.92;75.07
41573;BME280;27286;47.870;19.006;2023-01-30T12:55:53;98906.50;;;0.80;76.18
41573;BME280;27286;47.870;19.006;2023-01-30T13:09:50;98872.09;;;1.01;75.32
41573;BME280;27286;47.870;19.006;2023-01-30T13:22:19;98864.19;;;1.19;74.84
41573;BME280;27286;47.870;19.006;2023-01-30T13:28:00;98856.38;;;1.27;73.80
41573;BME280;27286;47.870;19.006;2023-01-30T13:30:28;98856.31;;;1.32;73.27
41573;BME280;27286;47.870;19.006;2023-01-30T13:33:00;98853.81;;;1.27;73.96
41573;BME280;27286;47.870;19.006;2023-01-30T13:35:32;98859.78;;;1.28;74.63
41573;BME280;27286;47.870;19.006;2023-01-30T13:37:59;98861.53;;;1.26;75.55
41573;BME280;27286;47.870;19.006;2023-01-30T13:40:31;98856.56;;;1.13;77.14
41573;BME280;27286;47.870;19.006;2023-01-30T13:43:28;98853.22;;;1.08;78.49
41573;BME280;27286;47.870;19.006;2023-01-30T13:45:57;98850.69;;;1.05;77.77
41573;BME280;27286;47.870;19.006;2023-01-30T13:51:20;98843.91;;;1.00;79.81
41573;BME280;27286;47.870;19.006;2023-01-30T13:56:45;98849.06;;;0.98;81.15
41573;BME280;27286;47.870;19.006;2023-01-30T14:13:05;98828.50;;;1.04;84.21
41573;BME280;27286;47.870;19.006;2023-01-30T14:15:30;98815.59;;;1.10;82.75
41573;BME280;27286;47.870;19.006;2023-01-30T14:20:38;98828.41;;;1.10;82.10
41573;BME280;27286;47.870;19.006;2023-01-30T14:23:20;98832.66;;;1.11;83.07
41573;BME280;27286;47.870;19.006;2023-01-30T14:25:51;98825.84;;;1.10;83.33
41573;BME280;27286;47.870;19.006;2023-01-30T14:38:28;98828.72;;;0.83;88.47
41573;BME280;27286;47.870;19.006;2023-01-30T14:51:43;98841.03;;;0.50;95.55
41573;BME280;27286;47.870;19.006;2023-01-30T14:57:15;98850.72;;;0.22;98.59
41573;BME280;27286;47.870;19.006;2023-01-30T15:04:48;98832.91;;;0.10;100.00
41573;BME280;27286;47.870;19.006;2023-01-30T15:07:23;98840.53;;;0.15;100.00
41573;BME280;27286;47.870;19.006;2023-01-30T15:10:02;98845.66;;;0.15;100.00
41573;BME280;27286;47.870;19.006;2023-01-30T15:13:21;98842.28;;;0.13;100.00
41573;BME280;27286;47.870;19.006;2023-01-30T15:18:20;98845.81;;;-0.02;100.00
41573;BME280;27286;47.870;19.006;2023-01-30T15:21:18;98841.56;;;-0.06;100.00
41573;BME280;27286;47.870;19.006;2023-01-30T15:32:23;98833.03;;;-0.04;100.00
41573;BME280;27286;47.870;19.006;2023-01-30T15:34:55;98844.13;;;-0.05;100.00
41573;BME280;27286;47.870;19.006;2023-01-30T15:37:32;98836.47;;;-0.06;100.00
41573;BME280;27286;47.870;19.006;2023-01-30T15:42:42;98816.91;;;-0.12;100.00
41573;BME280;27286;47.870;19.006;2023-01-30T15:50:14;98827.13;;;-0.12;100.00
41573;BME280;27286;47.870;19.006;2023-01-30T15:52:44;98827.06;;;-0.06;100.00
41573;BME280;27286;47.870;19.006;2023-01-30T15:55:23;98807.44;;;-0.04;100.00
41573;BME280;27286;47.870;19.006;2023-01-30T15:57:53;98810.84;;;0.00;100.00
41573;BME280;27286;47.870;19.006;2023-01-30T16:00:32;98838.06;;;0.06;100.00
41573;BME280;27286;47.870;19.006;2023-01-30T16:03:01;98828.56;;;0.17;100.00
41573;BME280;27286;47.870;19.006;2023-01-30T16:05:28;98825.13;;;0.22;100.00
41573;BME280;27286;47.870;19.006;2023-01-30T16:07:55;98829.50;;;0.11;100.00
41573;BME280;27286;47.870;19.006;2023-01-30T16:10:29;98832.06;;;0.10;100.00
41573;BME280;27286;47.870;19.006;2023-01-30T16:12:56;98837.22;;;0.07;100.00
41573;BME280;27286;47.870;19.006;2023-01-30T16:15:27;98838.06;;;0.06;100.00
41573;BME280;27286;47.870;19.006;2023-01-30T16:17:58;98837.25;;;0.04;100.00